This is the latest recevied weather packets stored in our database for station/object OE3BCB-14. If no packets are shown the sender has not sent any weather packets the latest 10 day(s).
| Time | Temp. | Humidity | Pressure | Rain* | Wind** | Luminosity | Snow |
|---|---|---|---|---|---|---|---|
| 1777970029 | 27.78° C | 39% | 1010.8 hPa | - | - | 275 W/m² | - |
| 1777969727 | 28.33° C | 39% | 1010.8 hPa | - | - | 331 W/m² | - |
| 1777969424 | 27.22° C | 40% | 1010.8 hPa | - | - | 347 W/m² | - |
| 1777969122 | 27.22° C | 40% | 1010.9 hPa | - | - | 394 W/m² | - |
| 1777968820 | 26.67° C | 42% | 1010.9 hPa | - | - | 331 W/m² | - |
| 1777968517 | 26.67° C | 42% | 1011 hPa | - | - | 357 W/m² | - |
| 1777968215 | 25.56° C | 44% | 1011.1 hPa | - | - | 335 W/m² | - |
| 1777967912 | 25° C | 43% | 1011.1 hPa | - | - | 295 W/m² | - |
| 1777967610 | 23.89° C | 44% | 1011.1 hPa | - | - | 243 W/m² | - |
| 1777967005 | 21.11° C | 44% | 1011.1 hPa | - | - | 154 W/m² | - |
| 1777966703 | 21.11° C | 44% | 1011.1 hPa | - | - | 106 W/m² | - |
| 1777966400 | 21.11° C | 45% | 1011.1 hPa | - | - | 30 W/m² | - |
| 1777966098 | 20.56° C | 45% | 1011.2 hPa | - | - | 30 W/m² | - |
| 1777965796 | 20.56° C | 45% | 1011.3 hPa | - | - | 28 W/m² | - |
| 1777965191 | 20.56° C | 45% | 1011.2 hPa | - | - | 29 W/m² | - |
| 1777964888 | 20.56° C | 45% | 1011.3 hPa | - | - | 29 W/m² | - |
| 1777964586 | 20.56° C | 46% | 1011.3 hPa | - | - | 30 W/m² | - |
| 1777964284 | 20.56° C | 46% | 1011.3 hPa | - | - | 30 W/m² | - |
| 1777963981 | 20.56° C | 46% | 1011.4 hPa | - | - | 32 W/m² | - |
| 1777963679 | 20.56° C | 46% | 1011.4 hPa | - | - | 34 W/m² | - |
| 1777963376 | 20.56° C | 46% | 1011.4 hPa | - | - | 36 W/m² | - |
| 1777963074 | 21.11° C | 45% | 1011.4 hPa | - | - | 95 W/m² | - |
| 1777962771 | 21.67° C | 47% | 1011.4 hPa | - | - | 136 W/m² | - |
| 1777962469 | 21.11° C | 47% | 1011.4 hPa | - | - | 141 W/m² | - |
| 1777962167 | 21.11° C | 47% | 1011.4 hPa | - | - | 90 W/m² | - |
* Rain since midnight (hover to see other rain measurements)
** Current wind speed in m/s (hover to see current wind gust speed)